KVKS/VKS METAR and TAF weather

Enter ICAO airport designator
Station Type Date Time Source
KVKS METAR 2020/01/21 09:35 UTC NOAA

KVKS 210935Z AUTO 00000KT 10SM M01/M05 A3054 RMK A01


Station Type Date Time Source
KVKS Decoded METAR 2020/01/21 09:35 UTC NOAA

Vicksburg Municipal, MS, United States (KVKS) 32-14N 090-56W
Jan 21, 2020 - 04:35 AM EST / 2020.01.21 0935 UTC
Wind: Calm:0
Visibility: 10 mile(s):0
Temperature: 30 F (-1 C)
Dew Point: 23 F (-5 C)
Relative Humidity: 74%
Pressure (altimeter): 30.54 in. Hg (1034 hPa)
ob: KVKS 210935Z AUTO 00000KT 10SM M01/M05 A3054 RMK A01
cycle: 9

Station Type Date Time Source
KVKS TAF UTC NOAA

Error!

Example: see airport list